KHHR METAR and TAF | Updated Today

KHHR METAR

Jack Northrop Field Hawthorne Municipal Airport

Observation time: 6 min. ago

KHHR 200653Z AUTO 12008KT 10SM OVC018 16/12 A2983 RMK AO2 SLP100 T01610122

Need help? Read our tutorial on how to read METARs or read the parsed version below.

Jack Northrop Field Hawthorne Municipal Airport (KHHR) METAR

  • Weather conditions on Fri, 20 May 2022 06:53:00 +0000 (6 min. ago):
  • Present conditions: Dry
  • Clouds: Overcast sky at 549 meters
  • Visibility: 16093 meters
  • Wind: 120 degrees at 8 knots
  • Temperature: 16 celsius
  • Dew point: 12 celsius
  • Pressure: 29.83 inHg
  • Remarks: AO2 SLP100 T01610122


Useful to know...

KHHR TAF

Jack Northrop Field Hawthorne Municipal Airport

TAF not found.

Airports near KHHR

KAVX Weather
Region: Avalon

Catalina Airport

Not found in our database
KBUR Weather
IATA: BUR
Region: Burbank

Bob Hope Airport

Found in our database
KCCB Weather
Region: Upland

Cable Airport

Not found in our database
KCNO Weather
Region: Chino

Chino Airport

Not found in our database
KEMT Weather
Region: El Monte

San Gabriel Valley Airport

Not found in our database
KFUL Weather
Region: Fullerton

Fullerton Municipal Airport

Not found in our database